sensor_id;sensor_type;location;lat;lon;timestamp;temperature;humidity
53208;DHT22;39093;52.788;6.940;2023-03-19T00:00:21;10.70;99.90
53208;DHT22;39093;52.788;6.940;2023-03-19T00:02:48;10.60;99.90
53208;DHT22;39093;52.788;6.940;2023-03-19T00:05:17;10.60;99.90
53208;DHT22;39093;52.788;6.940;2023-03-19T00:07:45;10.60;99.90
53208;DHT22;39093;52.788;6.940;2023-03-19T00:10:12;10.60;99.90
53208;DHT22;39093;52.788;6.940;2023-03-19T00:12:39;10.60;99.90
53208;DHT22;39093;52.788;6.940;2023-03-19T00:15:06;10.50;99.90
53208;DHT22;39093;52.788;6.940;2023-03-19T00:17:34;10.50;99.90
53208;DHT22;39093;52.788;6.940;2023-03-19T00:20:02;10.50;99.90
53208;DHT22;39093;52.788;6.940;2023-03-19T00:22:29;10.40;99.90
53208;DHT22;39093;52.788;6.940;2023-03-19T00:24:55;10.40;99.90
53208;DHT22;39093;52.788;6.940;2023-03-19T00:27:23;10.30;99.90
53208;DHT22;39093;52.788;6.940;2023-03-19T00:29:49;10.40;99.90
53208;DHT22;39093;52.788;6.940;2023-03-19T00:32:16;10.30;99.90
53208;DHT22;39093;52.788;6.940;2023-03-19T00:34:43;10.30;99.90
53208;DHT22;39093;52.788;6.940;2023-03-19T00:37:10;10.30;99.90
53208;DHT22;39093;52.788;6.940;2023-03-19T00:39:38;10.40;99.90
53208;DHT22;39093;52.788;6.940;2023-03-19T00:42:05;10.30;99.90
53208;DHT22;39093;52.788;6.940;2023-03-19T00:44:32;10.30;99.90
53208;DHT22;39093;52.788;6.940;2023-03-19T00:46:59;10.30;99.90
53208;DHT22;39093;52.788;6.940;2023-03-19T00:49:26;10.40;99.90
53208;DHT22;39093;52.788;6.940;2023-03-19T00:51:53;10.30;99.90
53208;DHT22;39093;52.788;6.940;2023-03-19T00:54:19;10.40;99.90
53208;DHT22;39093;52.788;6.940;2023-03-19T00:56:46;10.40;99.90
53208;DHT22;39093;52.788;6.940;2023-03-19T00:59:13;10.30;99.90
53208;DHT22;39093;52.788;6.940;2023-03-19T01:01:40;10.40;99.90
53208;DHT22;39093;52.788;6.940;2023-03-19T01:04:07;10.40;99.90
53208;DHT22;39093;52.788;6.940;2023-03-19T01:06:35;10.40;99.90
53208;DHT22;39093;52.788;6.940;2023-03-19T01:09:02;10.40;99.90
53208;DHT22;39093;52.788;6.940;2023-03-19T01:11:29;10.40;99.90
53208;DHT22;39093;52.788;6.940;2023-03-19T01:13:56;10.40;99.90
53208;DHT22;39093;52.788;6.940;2023-03-19T01:16:23;10.40;99.90
53208;DHT22;39093;52.788;6.940;2023-03-19T01:18:49;10.40;99.90
53208;DHT22;39093;52.788;6.940;2023-03-19T01:21:17;10.40;99.90
53208;DHT22;39093;52.788;6.940;2023-03-19T01:23:44;10.40;99.90
53208;DHT22;39093;52.788;6.940;2023-03-19T01:26:11;10.40;99.90
53208;DHT22;39093;52.788;6.940;2023-03-19T01:28:38;10.40;99.90
53208;DHT22;39093;52.788;6.940;2023-03-19T01:31:06;10.40;99.90
53208;DHT22;39093;52.788;6.940;2023-03-19T01:33:34;10.50;99.90
53208;DHT22;39093;52.788;6.940;2023-03-19T01:36:00;10.40;99.90
53208;DHT22;39093;52.788;6.940;2023-03-19T01:38:31;10.40;99.90
53208;DHT22;39093;52.788;6.940;2023-03-19T01:40:58;10.40;99.90
53208;DHT22;39093;52.788;6.940;2023-03-19T01:43:27;10.40;99.90
53208;DHT22;39093;52.788;6.940;2023-03-19T01:46:02;10.40;99.90
53208;DHT22;39093;52.788;6.940;2023-03-19T01:48:48;10.50;99.90
53208;DHT22;39093;52.788;6.940;2023-03-19T01:51:19;10.40;99.90
53208;DHT22;39093;52.788;6.940;2023-03-19T01:53:51;10.50;99.90
53208;DHT22;39093;52.788;6.940;2023-03-19T01:56:22;10.50;99.90
53208;DHT22;39093;52.788;6.940;2023-03-19T01:58:54;10.50;99.90
53208;DHT22;39093;52.788;6.940;2023-03-19T02:01:22;10.50;99.90
53208;DHT22;39093;52.788;6.940;2023-03-19T02:03:50;10.50;99.90
53208;DHT22;39093;52.788;6.940;2023-03-19T02:06:19;10.50;99.90
53208;DHT22;39093;52.788;6.940;2023-03-19T02:08:48;10.50;99.90
53208;DHT22;39093;52.788;6.940;2023-03-19T02:11:17;10.50;99.90
53208;DHT22;39093;52.788;6.940;2023-03-19T02:13:44;10.50;99.90
53208;DHT22;39093;52.788;6.940;2023-03-19T02:16:13;10.50;99.90
53208;DHT22;39093;52.788;6.940;2023-03-19T02:18:41;10.50;99.90
53208;DHT22;39093;52.788;6.940;2023-03-19T02:21:10;10.40;99.90
53208;DHT22;39093;52.788;6.940;2023-03-19T02:24:05;10.60;99.90
53208;DHT22;39093;52.788;6.940;2023-03-19T02:26:35;10.40;99.90
53208;DHT22;39093;52.788;6.940;2023-03-19T02:29:02;10.40;99.90
53208;DHT22;39093;52.788;6.940;2023-03-19T02:31:29;10.30;99.90
53208;DHT22;39093;52.788;6.940;2023-03-19T02:36:48;10.40;99.90
53208;DHT22;39093;52.788;6.940;2023-03-19T02:39:21;10.30;99.90
53208;DHT22;39093;52.788;6.940;2023-03-19T02:41:52;10.30;99.90
53208;DHT22;39093;52.788;6.940;2023-03-19T02:44:20;10.30;99.90
53208;DHT22;39093;52.788;6.940;2023-03-19T02:46:47;10.30;99.90
53208;DHT22;39093;52.788;6.940;2023-03-19T02:49:14;10.30;99.90
53208;DHT22;39093;52.788;6.940;2023-03-19T02:51:40;10.20;99.90
53208;DHT22;39093;52.788;6.940;2023-03-19T02:54:08;10.30;99.90
53208;DHT22;39093;52.788;6.940;2023-03-19T02:56:35;10.20;99.90
53208;DHT22;39093;52.788;6.940;2023-03-19T02:59:02;10.20;99.90
53208;DHT22;39093;52.788;6.940;2023-03-19T03:01:29;10.20;99.90
53208;DHT22;39093;52.788;6.940;2023-03-19T03:03:56;10.20;99.90
53208;DHT22;39093;52.788;6.940;2023-03-19T03:06:23;10.20;99.90
53208;DHT22;39093;52.788;6.940;2023-03-19T03:08:50;10.20;99.90
53208;DHT22;39093;52.788;6.940;2023-03-19T03:11:17;10.10;99.90
53208;DHT22;39093;52.788;6.940;2023-03-19T03:13:44;10.20;99.90
53208;DHT22;39093;52.788;6.940;2023-03-19T03:16:11;10.20;99.90
53208;DHT22;39093;52.788;6.940;2023-03-19T03:18:38;10.20;99.90
53208;DHT22;39093;52.788;6.940;2023-03-19T03:21:08;10.30;99.90
53208;DHT22;39093;52.788;6.940;2023-03-19T03:23:35;10.30;99.90
53208;DHT22;39093;52.788;6.940;2023-03-19T03:26:03;10.20;99.90
53208;DHT22;39093;52.788;6.940;2023-03-19T03:28:30;10.30;99.90
53208;DHT22;39093;52.788;6.940;2023-03-19T03:31:00;10.30;99.90
53208;DHT22;39093;52.788;6.940;2023-03-19T03:33:28;10.30;99.90
53208;DHT22;39093;52.788;6.940;2023-03-19T03:35:55;10.30;99.90
53208;DHT22;39093;52.788;6.940;2023-03-19T03:38:22;10.20;99.90
53208;DHT22;39093;52.788;6.940;2023-03-19T03:40:50;10.30;99.90
53208;DHT22;39093;52.788;6.940;2023-03-19T03:43:21;10.30;99.90
53208;DHT22;39093;52.788;6.940;2023-03-19T03:45:48;10.30;99.90
53208;DHT22;39093;52.788;6.940;2023-03-19T03:48:16;10.30;99.90
53208;DHT22;39093;52.788;6.940;2023-03-19T03:50:43;10.30;99.90
53208;DHT22;39093;52.788;6.940;2023-03-19T03:53:10;10.30;99.90
53208;DHT22;39093;52.788;6.940;2023-03-19T03:55:38;10.30;99.90
53208;DHT22;39093;52.788;6.940;2023-03-19T03:58:06;10.30;99.90
53208;DHT22;39093;52.788;6.940;2023-03-19T04:00:33;10.20;99.90
53208;DHT22;39093;52.788;6.940;2023-03-19T04:03:00;10.20;99.90
53208;DHT22;39093;52.788;6.940;2023-03-19T04:05:28;10.20;99.90
53208;DHT22;39093;52.788;6.940;2023-03-19T04:07:55;10.20;99.90
53208;DHT22;39093;52.788;6.940;2023-03-19T04:10:22;10.20;99.90
53208;DHT22;39093;52.788;6.940;2023-03-19T04:12:49;10.10;99.90
53208;DHT22;39093;52.788;6.940;2023-03-19T04:15:16;10.20;99.90
53208;DHT22;39093;52.788;6.940;2023-03-19T04:17:44;10.10;99.90
53208;DHT22;39093;52.788;6.940;2023-03-19T04:20:11;10.10;99.90
53208;DHT22;39093;52.788;6.940;2023-03-19T04:22:39;10.10;99.90
53208;DHT22;39093;52.788;6.940;2023-03-19T04:25:06;10.10;99.90
53208;DHT22;39093;52.788;6.940;2023-03-19T04:27:35;10.10;99.90
53208;DHT22;39093;52.788;6.940;2023-03-19T04:30:02;10.10;99.90
53208;DHT22;39093;52.788;6.940;2023-03-19T04:32:29;10.10;99.90
53208;DHT22;39093;52.788;6.940;2023-03-19T04:34:56;10.10;99.90
53208;DHT22;39093;52.788;6.940;2023-03-19T04:37:24;10.10;99.90
53208;DHT22;39093;52.788;6.940;2023-03-19T04:39:51;10.10;99.90
53208;DHT22;39093;52.788;6.940;2023-03-19T04:42:18;10.20;99.90
53208;DHT22;39093;52.788;6.940;2023-03-19T04:44:45;10.10;99.90
53208;DHT22;39093;52.788;6.940;2023-03-19T04:47:13;10.10;99.90
53208;DHT22;39093;52.788;6.940;2023-03-19T04:49:39;10.20;99.90
53208;DHT22;39093;52.788;6.940;2023-03-19T04:52:07;10.20;99.90
53208;DHT22;39093;52.788;6.940;2023-03-19T04:54:34;10.20;99.90
53208;DHT22;39093;52.788;6.940;2023-03-19T04:57:01;10.20;99.90
53208;DHT22;39093;52.788;6.940;2023-03-19T04:59:28;10.10;99.90
53208;DHT22;39093;52.788;6.940;2023-03-19T05:01:55;10.20;99.90
53208;DHT22;39093;52.788;6.940;2023-03-19T05:04:22;10.20;99.90
53208;DHT22;39093;52.788;6.940;2023-03-19T05:06:49;10.20;99.90
53208;DHT22;39093;52.788;6.940;2023-03-19T05:09:16;10.10;99.90
53208;DHT22;39093;52.788;6.940;2023-03-19T05:11:43;10.10;99.90
53208;DHT22;39093;52.788;6.940;2023-03-19T05:14:10;10.10;99.90
53208;DHT22;39093;52.788;6.940;2023-03-19T05:16:37;10.10;99.90
53208;DHT22;39093;52.788;6.940;2023-03-19T05:19:04;10.10;99.90
53208;DHT22;39093;52.788;6.940;2023-03-19T05:21:31;10.10;99.90
53208;DHT22;39093;52.788;6.940;2023-03-19T05:23:58;10.10;99.90
53208;DHT22;39093;52.788;6.940;2023-03-19T05:26:25;10.10;99.90
53208;DHT22;39093;52.788;6.940;2023-03-19T05:28:52;10.10;99.90
53208;DHT22;39093;52.788;6.940;2023-03-19T05:31:19;10.10;99.90
53208;DHT22;39093;52.788;6.940;2023-03-19T05:33:46;10.10;99.90
53208;DHT22;39093;52.788;6.940;2023-03-19T05:36:13;10.00;99.90
53208;DHT22;39093;52.788;6.940;2023-03-19T05:38:40;10.00;99.90
53208;DHT22;39093;52.788;6.940;2023-03-19T05:41:07;10.00;99.90
53208;DHT22;39093;52.788;6.940;2023-03-19T05:43:34;10.00;99.90
53208;DHT22;39093;52.788;6.940;2023-03-19T05:46:01;10.00;99.90
53208;DHT22;39093;52.788;6.940;2023-03-19T05:48:28;10.00;99.90
53208;DHT22;39093;52.788;6.940;2023-03-19T05:50:55;10.00;99.90
53208;DHT22;39093;52.788;6.940;2023-03-19T05:53:22;10.00;99.90
53208;DHT22;39093;52.788;6.940;2023-03-19T05:55:49;10.00;99.90
53208;DHT22;39093;52.788;6.940;2023-03-19T05:58:16;10.00;99.90
53208;DHT22;39093;52.788;6.940;2023-03-19T06:00:43;10.00;99.90
53208;DHT22;39093;52.788;6.940;2023-03-19T06:03:10;10.00;99.90
53208;DHT22;39093;52.788;6.940;2023-03-19T06:05:37;10.00;99.90
53208;DHT22;39093;52.788;6.940;2023-03-19T06:08:04;10.00;99.90
53208;DHT22;39093;52.788;6.940;2023-03-19T06:10:34;10.00;99.90
53208;DHT22;39093;52.788;6.940;2023-03-19T06:13:02;10.00;99.90
53208;DHT22;39093;52.788;6.940;2023-03-19T06:15:28;9.90;99.90
53208;DHT22;39093;52.788;6.940;2023-03-19T06:17:55;10.00;99.90
53208;DHT22;39093;52.788;6.940;2023-03-19T06:20:23;10.00;99.90
53208;DHT22;39093;52.788;6.940;2023-03-19T06:22:51;10.00;99.90
53208;DHT22;39093;52.788;6.940;2023-03-19T06:25:17;10.00;99.90
53208;DHT22;39093;52.788;6.940;2023-03-19T06:27:44;10.00;99.90
53208;DHT22;39093;52.788;6.940;2023-03-19T06:30:12;10.00;99.90
53208;DHT22;39093;52.788;6.940;2023-03-19T06:32:39;10.00;99.90
53208;DHT22;39093;52.788;6.940;2023-03-19T06:35:06;10.00;99.90
53208;DHT22;39093;52.788;6.940;2023-03-19T06:37:34;10.00;99.90
53208;DHT22;39093;52.788;6.940;2023-03-19T06:40:01;10.00;99.90
53208;DHT22;39093;52.788;6.940;2023-03-19T06:42:28;10.10;99.90
53208;DHT22;39093;52.788;6.940;2023-03-19T06:44:55;10.10;99.90
53208;DHT22;39093;52.788;6.940;2023-03-19T06:47:22;10.10;99.90
53208;DHT22;39093;52.788;6.940;2023-03-19T06:49:49;10.20;99.90
53208;DHT22;39093;52.788;6.940;2023-03-19T06:52:16;10.20;99.90
53208;DHT22;39093;52.788;6.940;2023-03-19T06:54:43;10.20;99.90
53208;DHT22;39093;52.788;6.940;2023-03-19T06:57:11;10.30;99.90
53208;DHT22;39093;52.788;6.940;2023-03-19T06:59:38;10.30;99.90
53208;DHT22;39093;52.788;6.940;2023-03-19T07:02:05;10.30;99.90
53208;DHT22;39093;52.788;6.940;2023-03-19T07:04:34;10.30;99.90
53208;DHT22;39093;52.788;6.940;2023-03-19T07:07:01;10.40;99.90
53208;DHT22;39093;52.788;6.940;2023-03-19T07:09:28;10.40;99.90
53208;DHT22;39093;52.788;6.940;2023-03-19T07:11:55;10.40;99.90
53208;DHT22;39093;52.788;6.940;2023-03-19T07:14:23;10.50;99.90
53208;DHT22;39093;52.788;6.940;2023-03-19T07:16:50;10.50;99.90
53208;DHT22;39093;52.788;6.940;2023-03-19T07:19:17;10.50;99.90
53208;DHT22;39093;52.788;6.940;2023-03-19T07:21:44;10.60;99.90
53208;DHT22;39093;52.788;6.940;2023-03-19T07:24:11;10.60;99.90
53208;DHT22;39093;52.788;6.940;2023-03-19T07:26:37;10.60;99.90
53208;DHT22;39093;52.788;6.940;2023-03-19T07:29:05;10.60;99.90
53208;DHT22;39093;52.788;6.940;2023-03-19T07:31:32;10.70;99.90
53208;DHT22;39093;52.788;6.940;2023-03-19T07:33:58;10.70;99.90
53208;DHT22;39093;52.788;6.940;2023-03-19T07:36:26;10.90;99.90
53208;DHT22;39093;52.788;6.940;2023-03-19T07:38:53;10.70;99.90
53208;DHT22;39093;52.788;6.940;2023-03-19T07:41:19;10.70;99.90
53208;DHT22;39093;52.788;6.940;2023-03-19T07:43:47;10.80;99.90
53208;DHT22;39093;52.788;6.940;2023-03-19T07:46:14;10.80;99.90
53208;DHT22;39093;52.788;6.940;2023-03-19T07:48:41;10.80;99.90
53208;DHT22;39093;52.788;6.940;2023-03-19T07:51:08;10.90;99.90
53208;DHT22;39093;52.788;6.940;2023-03-19T07:53:36;10.90;99.90
53208;DHT22;39093;52.788;6.940;2023-03-19T07:56:03;11.00;99.90
53208;DHT22;39093;52.788;6.940;2023-03-19T07:58:30;11.00;99.90
53208;DHT22;39093;52.788;6.940;2023-03-19T08:00:57;11.00;99.90
53208;DHT22;39093;52.788;6.940;2023-03-19T08:03:23;11.10;99.90
53208;DHT22;39093;52.788;6.940;2023-03-19T08:05:51;11.10;99.90
53208;DHT22;39093;52.788;6.940;2023-03-19T08:08:18;11.20;99.90
53208;DHT22;39093;52.788;6.940;2023-03-19T08:10:45;11.30;99.90
53208;DHT22;39093;52.788;6.940;2023-03-19T08:13:13;11.40;99.90
53208;DHT22;39093;52.788;6.940;2023-03-19T08:15:42;11.40;99.90
53208;DHT22;39093;52.788;6.940;2023-03-19T08:18:09;11.50;99.90
53208;DHT22;39093;52.788;6.940;2023-03-19T08:20:36;11.50;99.90
53208;DHT22;39093;52.788;6.940;2023-03-19T08:23:03;11.60;99.90
53208;DHT22;39093;52.788;6.940;2023-03-19T08:25:30;11.60;99.90
53208;DHT22;39093;52.788;6.940;2023-03-19T08:28:01;11.70;99.90
53208;DHT22;39093;52.788;6.940;2023-03-19T08:30:28;11.70;99.90
53208;DHT22;39093;52.788;6.940;2023-03-19T08:32:55;11.80;99.90
53208;DHT22;39093;52.788;6.940;2023-03-19T08:35:23;11.80;99.90
53208;DHT22;39093;52.788;6.940;2023-03-19T08:37:53;11.90;99.90
53208;DHT22;39093;52.788;6.940;2023-03-19T08:40:21;11.80;99.90
53208;DHT22;39093;52.788;6.940;2023-03-19T08:42:49;11.90;99.90
53208;DHT22;39093;52.788;6.940;2023-03-19T08:45:16;11.90;99.90
53208;DHT22;39093;52.788;6.940;2023-03-19T08:47:43;11.90;99.90
53208;DHT22;39093;52.788;6.940;2023-03-19T08:50:11;11.90;99.90
53208;DHT22;39093;52.788;6.940;2023-03-19T08:52:38;11.90;99.90
53208;DHT22;39093;52.788;6.940;2023-03-19T08:55:05;11.90;99.90
53208;DHT22;39093;52.788;6.940;2023-03-19T08:57:33;11.90;99.90
53208;DHT22;39093;52.788;6.940;2023-03-19T09:00:02;11.90;99.90
53208;DHT22;39093;52.788;6.940;2023-03-19T09:02:31;11.90;99.90
53208;DHT22;39093;52.788;6.940;2023-03-19T09:04:58;11.90;99.90
53208;DHT22;39093;52.788;6.940;2023-03-19T09:07:25;11.80;99.90
53208;DHT22;39093;52.788;6.940;2023-03-19T09:09:52;11.90;99.90
53208;DHT22;39093;52.788;6.940;2023-03-19T09:12:18;11.90;99.90
53208;DHT22;39093;52.788;6.940;2023-03-19T09:14:46;12.00;99.90
53208;DHT22;39093;52.788;6.940;2023-03-19T09:17:12;12.00;99.90
53208;DHT22;39093;52.788;6.940;2023-03-19T09:19:41;12.10;99.90
53208;DHT22;39093;52.788;6.940;2023-03-19T09:22:08;12.30;99.90
53208;DHT22;39093;52.788;6.940;2023-03-19T09:24:35;12.30;99.90
53208;DHT22;39093;52.788;6.940;2023-03-19T09:27:06;12.30;99.90
53208;DHT22;39093;52.788;6.940;2023-03-19T09:29:33;12.40;99.90
53208;DHT22;39093;52.788;6.940;2023-03-19T09:32:05;12.50;99.90
53208;DHT22;39093;52.788;6.940;2023-03-19T09:34:32;12.70;99.90
53208;DHT22;39093;52.788;6.940;2023-03-19T09:37:02;13.00;99.90
53208;DHT22;39093;52.788;6.940;2023-03-19T09:39:29;13.00;99.90
53208;DHT22;39093;52.788;6.940;2023-03-19T09:42:42;12.90;99.90
53208;DHT22;39093;52.788;6.940;2023-03-19T09:45:14;12.80;99.90
53208;DHT22;39093;52.788;6.940;2023-03-19T09:47:50;12.80;99.90
53208;DHT22;39093;52.788;6.940;2023-03-19T09:50:23;12.60;99.90
53208;DHT22;39093;52.788;6.940;2023-03-19T09:55:57;12.40;99.90
53208;DHT22;39093;52.788;6.940;2023-03-19T09:58:34;12.40;99.90
53208;DHT22;39093;52.788;6.940;2023-03-19T10:01:02;12.40;99.90
53208;DHT22;39093;52.788;6.940;2023-03-19T10:03:55;12.40;99.90
53208;DHT22;39093;52.788;6.940;2023-03-19T10:06:44;12.40;99.90
53208;DHT22;39093;52.788;6.940;2023-03-19T10:18:10;12.80;99.90
53208;DHT22;39093;52.788;6.940;2023-03-19T10:20:57;12.80;99.90
53208;DHT22;39093;52.788;6.940;2023-03-19T10:23:41;12.90;99.90
53208;DHT22;39093;52.788;6.940;2023-03-19T10:26:12;13.10;99.90
53208;DHT22;39093;52.788;6.940;2023-03-19T10:28:42;13.20;99.90
53208;DHT22;39093;52.788;6.940;2023-03-19T10:31:28;13.20;99.90
53208;DHT22;39093;52.788;6.940;2023-03-19T10:34:26;13.20;99.90
53208;DHT22;39093;52.788;6.940;2023-03-19T10:37:19;13.30;99.90
53208;DHT22;39093;52.788;6.940;2023-03-19T10:39:49;13.40;99.90
53208;DHT22;39093;52.788;6.940;2023-03-19T10:45:25;13.80;99.90
53208;DHT22;39093;52.788;6.940;2023-03-19T10:47:55;13.80;99.90
53208;DHT22;39093;52.788;6.940;2023-03-19T10:50:41;13.70;99.90
53208;DHT22;39093;52.788;6.940;2023-03-19T10:55:53;13.80;99.90
53208;DHT22;39093;52.788;6.940;2023-03-19T10:58:29;13.70;99.90
53208;DHT22;39093;52.788;6.940;2023-03-19T11:01:06;13.80;99.90
53208;DHT22;39093;52.788;6.940;2023-03-19T11:06:05;13.90;99.90
53208;DHT22;39093;52.788;6.940;2023-03-19T11:08:35;14.00;99.90
53208;DHT22;39093;52.788;6.940;2023-03-19T11:11:03;14.10;99.90
53208;DHT22;39093;52.788;6.940;2023-03-19T11:13:33;14.20;99.90
53208;DHT22;39093;52.788;6.940;2023-03-19T11:16:01;14.40;99.90
53208;DHT22;39093;52.788;6.940;2023-03-19T11:18:36;14.60;99.90
53208;DHT22;39093;52.788;6.940;2023-03-19T11:23:58;14.80;99.90
53208;DHT22;39093;52.788;6.940;2023-03-19T11:26:26;14.80;99.90
53208;DHT22;39093;52.788;6.940;2023-03-19T11:29:02;14.90;99.90
53208;DHT22;39093;52.788;6.940;2023-03-19T11:45:34;14.90;99.90
53208;DHT22;39093;52.788;6.940;2023-03-19T11:51:19;15.70;99.90
53208;DHT22;39093;52.788;6.940;2023-03-19T11:56:50;17.60;99.90
53208;DHT22;39093;52.788;6.940;2023-03-19T11:59:31;18.80;99.90
53208;DHT22;39093;52.788;6.940;2023-03-19T12:05:26;18.80;99.80
53208;DHT22;39093;52.788;6.940;2023-03-19T12:16:01;20.60;96.90
53208;DHT22;39093;52.788;6.940;2023-03-19T12:24:03;21.40;94.00
53208;DHT22;39093;52.788;6.940;2023-03-19T12:29:59;21.60;92.60
53208;DHT22;39093;52.788;6.940;2023-03-19T12:35:15;22.10;92.70
53208;DHT22;39093;52.788;6.940;2023-03-19T12:37:55;22.00;91.50
53208;DHT22;39093;52.788;6.940;2023-03-19T12:40:28;21.90;91.10
53208;DHT22;39093;52.788;6.940;2023-03-19T12:43:03;21.90;92.10
53208;DHT22;39093;52.788;6.940;2023-03-19T12:45:43;22.30;89.40
53208;DHT22;39093;52.788;6.940;2023-03-19T12:48:22;22.50;88.40
53208;DHT22;39093;52.788;6.940;2023-03-19T12:50:55;22.60;89.40
53208;DHT22;39093;52.788;6.940;2023-03-19T12:56:24;22.70;86.30
53208;DHT22;39093;52.788;6.940;2023-03-19T12:59:16;23.00;87.90
53208;DHT22;39093;52.788;6.940;2023-03-19T13:01:48;22.70;88.20
53208;DHT22;39093;52.788;6.940;2023-03-19T13:04:21;22.90;86.70
53208;DHT22;39093;52.788;6.940;2023-03-19T13:07:10;23.30;86.20
53208;DHT22;39093;52.788;6.940;2023-03-19T13:09:47;23.80;83.50
53208;DHT22;39093;52.788;6.940;2023-03-19T13:12:22;24.00;83.00
53208;DHT22;39093;52.788;6.940;2023-03-19T13:20:21;24.00;79.20
53208;DHT22;39093;52.788;6.940;2023-03-19T13:22:55;24.50;80.60
53208;DHT22;39093;52.788;6.940;2023-03-19T13:25:33;24.40;80.10
53208;DHT22;39093;52.788;6.940;2023-03-19T13:28:01;24.20;79.00
53208;DHT22;39093;52.788;6.940;2023-03-19T13:30:32;23.40;79.80
53208;DHT22;39093;52.788;6.940;2023-03-19T13:33:04;23.30;81.20
53208;DHT22;39093;52.788;6.940;2023-03-19T13:35:36;23.40;79.40
53208;DHT22;39093;52.788;6.940;2023-03-19T13:40:45;23.60;77.40
53208;DHT22;39093;52.788;6.940;2023-03-19T13:46:37;22.60;83.30
53208;DHT22;39093;52.788;6.940;2023-03-19T13:49:21;23.40;81.30
53208;DHT22;39093;52.788;6.940;2023-03-19T13:51:54;23.80;77.20
53208;DHT22;39093;52.788;6.940;2023-03-19T13:54:35;23.90;77.60
53208;DHT22;39093;52.788;6.940;2023-03-19T13:57:18;23.40;76.30
53208;DHT22;39093;52.788;6.940;2023-03-19T13:59:49;22.40;77.80
53208;DHT22;39093;52.788;6.940;2023-03-19T14:05:16;21.90;83.90
53208;DHT22;39093;52.788;6.940;2023-03-19T14:07:49;22.40;79.90
53208;DHT22;39093;52.788;6.940;2023-03-19T14:10:25;22.00;79.00
53208;DHT22;39093;52.788;6.940;2023-03-19T14:13:06;21.70;80.20
53208;DHT22;39093;52.788;6.940;2023-03-19T14:15:38;21.40;82.50
53208;DHT22;39093;52.788;6.940;2023-03-19T14:18:11;21.10;82.00
53208;DHT22;39093;52.788;6.940;2023-03-19T14:20:56;20.80;84.10
53208;DHT22;39093;52.788;6.940;2023-03-19T14:23:26;20.80;84.50
53208;DHT22;39093;52.788;6.940;2023-03-19T14:26:18;21.70;82.50
53208;DHT22;39093;52.788;6.940;2023-03-19T14:34:06;22.20;77.90
53208;DHT22;39093;52.788;6.940;2023-03-19T14:36:46;21.50;81.90
53208;DHT22;39093;52.788;6.940;2023-03-19T14:39:21;20.70;84.00
53208;DHT22;39093;52.788;6.940;2023-03-19T14:41:55;20.40;84.40
53208;DHT22;39093;52.788;6.940;2023-03-19T14:47:37;20.40;86.70
53208;DHT22;39093;52.788;6.940;2023-03-19T14:53:08;20.10;88.00
53208;DHT22;39093;52.788;6.940;2023-03-19T14:55:40;20.20;89.20
53208;DHT22;39093;52.788;6.940;2023-03-19T14:58:11;20.70;89.20
53208;DHT22;39093;52.788;6.940;2023-03-19T15:00:49;20.60;87.50
53208;DHT22;39093;52.788;6.940;2023-03-19T15:03:34;20.20;85.70
53208;DHT22;39093;52.788;6.940;2023-03-19T15:06:06;19.90;88.90
53208;DHT22;39093;52.788;6.940;2023-03-19T15:08:37;20.00;89.50
53208;DHT22;39093;52.788;6.940;2023-03-19T15:16:46;19.50;90.70
53208;DHT22;39093;52.788;6.940;2023-03-19T15:19:21;19.40;91.00
53208;DHT22;39093;52.788;6.940;2023-03-19T15:21:50;19.10;91.80
53208;DHT22;39093;52.788;6.940;2023-03-19T15:24:17;19.00;92.60
53208;DHT22;39093;52.788;6.940;2023-03-19T15:26:45;18.70;92.70
53208;DHT22;39093;52.788;6.940;2023-03-19T15:29:12;18.60;93.60
53208;DHT22;39093;52.788;6.940;2023-03-19T15:31:44;18.50;93.90
53208;DHT22;39093;52.788;6.940;2023-03-19T15:34:27;18.50;94.50
53208;DHT22;39093;52.788;6.940;2023-03-19T15:37:03;18.60;94.40
53208;DHT22;39093;52.788;6.940;2023-03-19T15:39:36;18.40;95.00
53208;DHT22;39093;52.788;6.940;2023-03-19T15:42:05;18.50;94.40
53208;DHT22;39093;52.788;6.940;2023-03-19T15:44:41;18.50;94.30
53208;DHT22;39093;52.788;6.940;2023-03-19T15:47:12;18.10;94.80
53208;DHT22;39093;52.788;6.940;2023-03-19T15:49:50;17.70;95.30
53208;DHT22;39093;52.788;6.940;2023-03-19T15:52:19;17.60;96.10
53208;DHT22;39093;52.788;6.940;2023-03-19T15:54:46;17.30;97.20
53208;DHT22;39093;52.788;6.940;2023-03-19T15:57:15;17.10;97.70
53208;DHT22;39093;52.788;6.940;2023-03-19T15:59:44;16.70;98.90
53208;DHT22;39093;52.788;6.940;2023-03-19T16:02:31;16.40;99.90
53208;DHT22;39093;52.788;6.940;2023-03-19T16:05:01;16.20;99.90
53208;DHT22;39093;52.788;6.940;2023-03-19T16:07:52;15.80;99.90
53208;DHT22;39093;52.788;6.940;2023-03-19T16:10:32;15.60;99.90
53208;DHT22;39093;52.788;6.940;2023-03-19T16:13:00;15.30;99.90
53208;DHT22;39093;52.788;6.940;2023-03-19T16:20:47;14.40;99.90
53208;DHT22;39093;52.788;6.940;2023-03-19T16:23:31;14.20;99.90
53208;DHT22;39093;52.788;6.940;2023-03-19T16:26:25;14.10;99.90
53208;DHT22;39093;52.788;6.940;2023-03-19T16:29:02;13.90;99.90
53208;DHT22;39093;52.788;6.940;2023-03-19T16:31:41;13.80;99.90
53208;DHT22;39093;52.788;6.940;2023-03-19T16:37:02;13.50;99.90
53208;DHT22;39093;52.788;6.940;2023-03-19T16:39:57;13.40;99.90
53208;DHT22;39093;52.788;6.940;2023-03-19T16:45:26;13.30;99.90
53208;DHT22;39093;52.788;6.940;2023-03-19T16:47:55;13.10;99.90
53208;DHT22;39093;52.788;6.940;2023-03-19T16:50:39;13.00;99.90
53208;DHT22;39093;52.788;6.940;2023-03-19T16:55:44;12.90;99.90
53208;DHT22;39093;52.788;6.940;2023-03-19T16:58:15;12.90;99.90
53208;DHT22;39093;52.788;6.940;2023-03-19T17:00:43;12.80;99.90
53208;DHT22;39093;52.788;6.940;2023-03-19T17:03:16;12.80;99.90
53208;DHT22;39093;52.788;6.940;2023-03-19T17:05:44;12.80;99.90
53208;DHT22;39093;52.788;6.940;2023-03-19T17:08:12;12.80;99.90
53208;DHT22;39093;52.788;6.940;2023-03-19T17:10:45;12.60;99.90
53208;DHT22;39093;52.788;6.940;2023-03-19T17:13:21;12.50;99.90
53208;DHT22;39093;52.788;6.940;2023-03-19T17:15:49;12.40;99.90
53208;DHT22;39093;52.788;6.940;2023-03-19T17:18:28;12.40;99.90
53208;DHT22;39093;52.788;6.940;2023-03-19T17:21:14;12.40;99.90
53208;DHT22;39093;52.788;6.940;2023-03-19T17:23:42;12.40;99.90
53208;DHT22;39093;52.788;6.940;2023-03-19T17:28:43;12.20;99.90
53208;DHT22;39093;52.788;6.940;2023-03-19T17:31:26;12.20;99.90
53208;DHT22;39093;52.788;6.940;2023-03-19T17:34:04;12.20;99.90
53208;DHT22;39093;52.788;6.940;2023-03-19T17:36:32;12.20;99.90
53208;DHT22;39093;52.788;6.940;2023-03-19T17:38:59;12.10;99.90
53208;DHT22;39093;52.788;6.940;2023-03-19T17:41:26;12.20;99.90
53208;DHT22;39093;52.788;6.940;2023-03-19T17:43:53;12.10;99.90
53208;DHT22;39093;52.788;6.940;2023-03-19T17:46:25;12.10;99.90
53208;DHT22;39093;52.788;6.940;2023-03-19T17:48:53;12.10;99.90